sensor_id;sensor_type;location;lat;lon;timestamp;pressure;altitude;pressure_sealevel;temperature;humidity
69257;BME280;56376;53.356;-1.748;2023-03-21T00:00:22;98804.13;;;10.17;100.00
69257;BME280;56376;53.356;-1.748;2023-03-21T00:02:47;98792.06;;;10.15;100.00
69257;BME280;56376;53.356;-1.748;2023-03-21T00:05:12;98791.28;;;10.13;100.00
69257;BME280;56376;53.356;-1.748;2023-03-21T00:07:38;98786.16;;;10.11;100.00
69257;BME280;56376;53.356;-1.748;2023-03-21T00:10:03;98776.72;;;10.09;100.00
69257;BME280;56376;53.356;-1.748;2023-03-21T00:12:29;98773.19;;;10.10;100.00
69257;BME280;56376;53.356;-1.748;2023-03-21T00:14:59;98768.88;;;10.09;100.00
69257;BME280;56376;53.356;-1.748;2023-03-21T00:17:30;98764.50;;;10.09;100.00
69257;BME280;56376;53.356;-1.748;2023-03-21T00:20:00;98756.63;;;10.11;100.00
69257;BME280;56376;53.356;-1.748;2023-03-21T00:22:27;98758.44;;;10.09;100.00
69257;BME280;56376;53.356;-1.748;2023-03-21T00:24:55;98750.63;;;10.09;100.00
69257;BME280;56376;53.356;-1.748;2023-03-21T00:27:21;98753.44;;;10.04;100.00
69257;BME280;56376;53.356;-1.748;2023-03-21T00:29:47;98757.97;;;10.01;100.00
69257;BME280;56376;53.356;-1.748;2023-03-21T00:32:14;98753.66;;;10.00;100.00
69257;BME280;56376;53.356;-1.748;2023-03-21T00:34:40;98741.53;;;9.99;100.00
69257;BME280;56376;53.356;-1.748;2023-03-21T00:37:06;98727.78;;;9.95;100.00
69257;BME280;56376;53.356;-1.748;2023-03-21T00:39:33;98730.38;;;9.95;100.00
69257;BME280;56376;53.356;-1.748;2023-03-21T00:41:59;98720.19;;;9.90;100.00
69257;BME280;56376;53.356;-1.748;2023-03-21T00:44:24;98720.25;;;9.89;100.00
69257;BME280;56376;53.356;-1.748;2023-03-21T00:46:50;98733.28;;;9.89;100.00
69257;BME280;56376;53.356;-1.748;2023-03-21T00:49:16;98726.44;;;9.86;100.00
69257;BME280;56376;53.356;-1.748;2023-03-21T00:51:41;98721.28;;;9.85;100.00
69257;BME280;56376;53.356;-1.748;2023-03-21T00:54:10;98721.50;;;9.80;100.00
69257;BME280;56376;53.356;-1.748;2023-03-21T00:56:35;98722.44;;;9.79;100.00
69257;BME280;56376;53.356;-1.748;2023-03-21T00:59:01;98718.03;;;9.80;100.00
69257;BME280;56376;53.356;-1.748;2023-03-21T01:01:26;98715.53;;;9.78;100.00
69257;BME280;56376;53.356;-1.748;2023-03-21T01:03:57;98717.41;;;9.74;100.00
69257;BME280;56376;53.356;-1.748;2023-03-21T01:06:28;98699.25;;;9.73;100.00
69257;BME280;56376;53.356;-1.748;2023-03-21T01:08:54;98700.97;;;9.72;100.00
69257;BME280;56376;53.356;-1.748;2023-03-21T01:11:23;98705.44;;;9.70;100.00
69257;BME280;56376;53.356;-1.748;2023-03-21T01:13:49;98701.97;;;9.70;100.00
69257;BME280;56376;53.356;-1.748;2023-03-21T01:16:15;98698.63;;;9.68;100.00
69257;BME280;56376;53.356;-1.748;2023-03-21T01:18:40;98696.06;;;9.66;100.00
69257;BME280;56376;53.356;-1.748;2023-03-21T01:21:09;98690.16;;;9.63;100.00
69257;BME280;56376;53.356;-1.748;2023-03-21T01:23:37;98682.44;;;9.60;100.00
69257;BME280;56376;53.356;-1.748;2023-03-21T01:26:03;98677.38;;;9.57;100.00
69257;BME280;56376;53.356;-1.748;2023-03-21T01:28:29;98666.91;;;9.58;100.00
69257;BME280;56376;53.356;-1.748;2023-03-21T01:30:55;98662.66;;;9.56;100.00
69257;BME280;56376;53.356;-1.748;2023-03-21T01:33:21;98655.75;;;9.54;100.00
69257;BME280;56376;53.356;-1.748;2023-03-21T01:35:48;98659.28;;;9.53;100.00
69257;BME280;56376;53.356;-1.748;2023-03-21T01:38:13;98649.78;;;9.52;100.00
69257;BME280;56376;53.356;-1.748;2023-03-21T01:40:39;98639.34;;;9.52;100.00
69257;BME280;56376;53.356;-1.748;2023-03-21T01:43:34;98642.94;;;9.50;100.00
69257;BME280;56376;53.356;-1.748;2023-03-21T01:48:38;98643.16;;;9.45;100.00
69257;BME280;56376;53.356;-1.748;2023-03-21T01:51:04;98630.13;;;9.45;100.00
69257;BME280;56376;53.356;-1.748;2023-03-21T01:53:32;98634.56;;;9.43;100.00
69257;BME280;56376;53.356;-1.748;2023-03-21T01:56:02;98629.34;;;9.43;100.00
69257;BME280;56376;53.356;-1.748;2023-03-21T01:58:31;98633.72;;;9.43;100.00
69257;BME280;56376;53.356;-1.748;2023-03-21T02:00:57;98631.94;;;9.43;100.00
69257;BME280;56376;53.356;-1.748;2023-03-21T02:03:24;98622.41;;;9.42;100.00
69257;BME280;56376;53.356;-1.748;2023-03-21T02:06:03;98611.25;;;9.40;100.00
69257;BME280;56376;53.356;-1.748;2023-03-21T02:08:31;98622.56;;;9.39;100.00
69257;BME280;56376;53.356;-1.748;2023-03-21T02:10:57;98619.19;;;9.37;100.00
69257;BME280;56376;53.356;-1.748;2023-03-21T02:13:23;98618.34;;;9.37;100.00
69257;BME280;56376;53.356;-1.748;2023-03-21T02:15:58;98607.03;;;9.38;100.00
69257;BME280;56376;53.356;-1.748;2023-03-21T02:27:07;98610.66;;;9.34;100.00
69257;BME280;56376;53.356;-1.748;2023-03-21T02:38:30;98596.06;;;9.29;100.00
69257;BME280;56376;53.356;-1.748;2023-03-21T02:41:05;98593.47;;;9.29;100.00
69257;BME280;56376;53.356;-1.748;2023-03-21T02:44:28;98599.66;;;9.27;100.00
69257;BME280;56376;53.356;-1.748;2023-03-21T02:46:39;98600.59;;;9.26;100.00
69257;BME280;56376;53.356;-1.748;2023-03-21T02:49:28;98593.63;;;9.26;100.00
69257;BME280;56376;53.356;-1.748;2023-03-21T02:51:57;98597.16;;;9.25;100.00
69257;BME280;56376;53.356;-1.748;2023-03-21T02:54:24;98602.38;;;9.25;100.00
69257;BME280;56376;53.356;-1.748;2023-03-21T02:56:51;98594.53;;;9.25;100.00
69257;BME280;56376;53.356;-1.748;2023-03-21T02:59:18;98580.69;;;9.25;100.00
69257;BME280;56376;53.356;-1.748;2023-03-21T03:01:45;98570.16;;;9.26;100.00
69257;BME280;56376;53.356;-1.748;2023-03-21T03:04:22;98570.16;;;9.26;100.00
69257;BME280;56376;53.356;-1.748;2023-03-21T03:07:16;98574.69;;;9.23;100.00
69257;BME280;56376;53.356;-1.748;2023-03-21T03:23:03;98558.28;;;9.21;100.00
69257;BME280;56376;53.356;-1.748;2023-03-21T03:25:37;98537.44;;;9.21;100.00
69257;BME280;56376;53.356;-1.748;2023-03-21T03:28:05;98535.66;;;9.21;100.00
69257;BME280;56376;53.356;-1.748;2023-03-21T03:30:32;98530.53;;;9.20;100.00
69257;BME280;56376;53.356;-1.748;2023-03-21T03:33:02;98527.16;;;9.18;100.00
69257;BME280;56376;53.356;-1.748;2023-03-21T03:35:31;98537.47;;;9.19;100.00
69257;BME280;56376;53.356;-1.748;2023-03-21T03:37:59;98540.19;;;9.18;100.00
69257;BME280;56376;53.356;-1.748;2023-03-21T03:40:48;98534.03;;;9.19;100.00
69257;BME280;56376;53.356;-1.748;2023-03-21T03:43:22;98537.69;;;9.15;100.00
69257;BME280;56376;53.356;-1.748;2023-03-21T03:45:57;98528.06;;;9.17;100.00
69257;BME280;56376;53.356;-1.748;2023-03-21T03:48:43;98534.19;;;9.16;100.00
69257;BME280;56376;53.356;-1.748;2023-03-21T03:51:26;98542.00;;;9.16;100.00
69257;BME280;56376;53.356;-1.748;2023-03-21T03:53:58;98527.22;;;9.16;100.00
69257;BME280;56376;53.356;-1.748;2023-03-21T03:56:25;98517.00;;;9.12;100.00
69257;BME280;56376;53.356;-1.748;2023-03-21T03:58:51;98528.41;;;9.09;100.00
69257;BME280;56376;53.356;-1.748;2023-03-21T04:01:17;98529.19;;;9.11;100.00
69257;BME280;56376;53.356;-1.748;2023-03-21T04:03:45;98537.00;;;9.11;100.00
69257;BME280;56376;53.356;-1.748;2023-03-21T04:06:12;98529.19;;;9.11;100.00
69257;BME280;56376;53.356;-1.748;2023-03-21T04:08:38;98526.53;;;9.13;100.00
69257;BME280;56376;53.356;-1.748;2023-03-21T04:11:04;98520.38;;;9.14;100.00
69257;BME280;56376;53.356;-1.748;2023-03-21T04:13:30;98516.16;;;9.11;100.00
69257;BME280;56376;53.356;-1.748;2023-03-21T04:15:55;98516.31;;;9.08;100.00
69257;BME280;56376;53.356;-1.748;2023-03-21T04:18:21;98510.16;;;9.09;100.00
69257;BME280;56376;53.356;-1.748;2023-03-21T04:20:48;98518.81;;;9.09;100.00
69257;BME280;56376;53.356;-1.748;2023-03-21T04:23:16;98495.47;;;9.08;100.00
69257;BME280;56376;53.356;-1.748;2023-03-21T04:25:43;98495.69;;;9.03;100.00
69257;BME280;56376;53.356;-1.748;2023-03-21T04:28:09;98501.66;;;9.05;100.00
69257;BME280;56376;53.356;-1.748;2023-03-21T04:30:34;98506.88;;;9.05;100.00
69257;BME280;56376;53.356;-1.748;2023-03-21T04:33:00;98498.13;;;9.06;100.00
69257;BME280;56376;53.356;-1.748;2023-03-21T04:35:26;98502.50;;;9.06;100.00
69257;BME280;56376;53.356;-1.748;2023-03-21T04:37:53;98494.75;;;9.04;100.00
69257;BME280;56376;53.356;-1.748;2023-03-21T04:40:18;98498.13;;;9.06;100.00
69257;BME280;56376;53.356;-1.748;2023-03-21T04:42:45;98492.16;;;9.04;100.00
69257;BME280;56376;53.356;-1.748;2023-03-21T04:45:11;98489.53;;;9.04;100.00
69257;BME280;56376;53.356;-1.748;2023-03-21T04:47:37;98495.47;;;9.08;100.00
69257;BME280;56376;53.356;-1.748;2023-03-21T04:50:03;98499.91;;;9.06;100.00
69257;BME280;56376;53.356;-1.748;2023-03-21T04:52:29;98480.81;;;9.05;100.00
69257;BME280;56376;53.356;-1.748;2023-03-21T04:54:54;98483.50;;;9.04;100.00
69257;BME280;56376;53.356;-1.748;2023-03-21T04:57:20;98474.91;;;9.02;100.00
69257;BME280;56376;53.356;-1.748;2023-03-21T04:59:45;98457.66;;;8.99;100.00
69257;BME280;56376;53.356;-1.748;2023-03-21T05:02:11;98455.97;;;8.98;100.00
69257;BME280;56376;53.356;-1.748;2023-03-21T05:04:38;98454.16;;;9.00;100.00
69257;BME280;56376;53.356;-1.748;2023-03-21T05:07:03;98454.06;;;9.02;100.00
69257;BME280;56376;53.356;-1.748;2023-03-21T05:09:29;98455.00;;;9.01;100.00
69257;BME280;56376;53.356;-1.748;2023-03-21T05:11:54;98449.72;;;9.02;100.00
69257;BME280;56376;53.356;-1.748;2023-03-21T05:14:23;98447.94;;;9.03;100.00
69257;BME280;56376;53.356;-1.748;2023-03-21T05:16:50;98447.19;;;9.01;100.00
69257;BME280;56376;53.356;-1.748;2023-03-21T05:19:26;98454.06;;;9.02;100.00
69257;BME280;56376;53.356;-1.748;2023-03-21T05:22:07;98448.84;;;9.02;100.00
69257;BME280;56376;53.356;-1.748;2023-03-21T05:24:33;98436.91;;;8.98;100.00
69257;BME280;56376;53.356;-1.748;2023-03-21T05:26:59;98437.75;;;8.98;100.00
69257;BME280;56376;53.356;-1.748;2023-03-21T05:29:30;98429.94;;;8.98;100.00
69257;BME280;56376;53.356;-1.748;2023-03-21T05:31:56;98434.31;;;8.98;100.00
69257;BME280;56376;53.356;-1.748;2023-03-21T05:34:22;98436.81;;;8.99;100.00
69257;BME280;56376;53.356;-1.748;2023-03-21T05:36:47;98427.31;;;8.98;100.00
69257;BME280;56376;53.356;-1.748;2023-03-21T05:39:12;98432.53;;;8.98;100.00
69257;BME280;56376;53.356;-1.748;2023-03-21T05:41:38;98416.91;;;8.98;100.00
69257;BME280;56376;53.356;-1.748;2023-03-21T05:44:03;98433.38;;;8.99;100.00
69257;BME280;56376;53.356;-1.748;2023-03-21T05:46:29;98415.97;;;8.99;100.00
69257;BME280;56376;53.356;-1.748;2023-03-21T05:48:54;98415.91;;;9.01;100.00
69257;BME280;56376;53.356;-1.748;2023-03-21T05:51:20;98412.47;;;9.00;100.00
69257;BME280;56376;53.356;-1.748;2023-03-21T05:53:45;98415.97;;;8.99;100.00
69257;BME280;56376;53.356;-1.748;2023-03-21T05:56:10;98414.25;;;9.00;100.00
69257;BME280;56376;53.356;-1.748;2023-03-21T05:58:36;98413.38;;;8.99;100.00
69257;BME280;56376;53.356;-1.748;2023-03-21T06:01:01;98414.16;;;9.01;100.00
69257;BME280;56376;53.356;-1.748;2023-03-21T06:03:27;98413.38;;;8.99;100.00
69257;BME280;56376;53.356;-1.748;2023-03-21T06:05:52;98409.88;;;9.00;100.00
69257;BME280;56376;53.356;-1.748;2023-03-21T06:08:18;98405.50;;;9.01;100.00
69257;BME280;56376;53.356;-1.748;2023-03-21T06:10:43;98407.28;;;9.00;100.00
69257;BME280;56376;53.356;-1.748;2023-03-21T06:13:09;98402.91;;;9.01;100.00
69257;BME280;56376;53.356;-1.748;2023-03-21T06:15:34;98408.94;;;9.01;100.00
69257;BME280;56376;53.356;-1.748;2023-03-21T06:18:00;98406.34;;;9.01;100.00
69257;BME280;56376;53.356;-1.748;2023-03-21T06:20:25;98405.50;;;9.01;100.00
69257;BME280;56376;53.356;-1.748;2023-03-21T06:22:50;98399.38;;;9.02;100.00
69257;BME280;56376;53.356;-1.748;2023-03-21T06:25:16;98401.06;;;9.03;100.00
69257;BME280;56376;53.356;-1.748;2023-03-21T06:27:41;98400.97;;;9.04;100.00
69257;BME280;56376;53.356;-1.748;2023-03-21T06:30:07;98399.16;;;9.06;100.00
69257;BME280;56376;53.356;-1.748;2023-03-21T06:32:33;98395.66;;;9.07;100.00
69257;BME280;56376;53.356;-1.748;2023-03-21T06:34:58;98393.94;;;9.06;100.00
69257;BME280;56376;53.356;-1.748;2023-03-21T06:37:24;98389.56;;;9.07;100.00
69257;BME280;56376;53.356;-1.748;2023-03-21T06:39:50;98389.56;;;9.07;100.00
69257;BME280;56376;53.356;-1.748;2023-03-21T06:42:16;98395.66;;;9.07;100.00
69257;BME280;56376;53.356;-1.748;2023-03-21T06:44:41;98392.25;;;9.05;100.00
69257;BME280;56376;53.356;-1.748;2023-03-21T06:47:07;98394.94;;;9.04;100.00
69257;BME280;56376;53.356;-1.748;2023-03-21T06:49:32;98409.56;;;9.06;100.00
69257;BME280;56376;53.356;-1.748;2023-03-21T06:51:58;98406.13;;;9.06;100.00
69257;BME280;56376;53.356;-1.748;2023-03-21T06:54:23;98418.31;;;9.05;100.00
69257;BME280;56376;53.356;-1.748;2023-03-21T06:56:48;98409.56;;;9.06;100.00
69257;BME280;56376;53.356;-1.748;2023-03-21T06:59:14;98412.09;;;9.08;100.00
69257;BME280;56376;53.356;-1.748;2023-03-21T07:01:40;98414.72;;;9.08;100.00
69257;BME280;56376;53.356;-1.748;2023-03-21T07:04:07;98407.81;;;9.07;100.00
69257;BME280;56376;53.356;-1.748;2023-03-21T07:06:33;98406.97;;;9.06;100.00
69257;BME280;56376;53.356;-1.748;2023-03-21T07:08:58;98399.16;;;9.06;100.00
69257;BME280;56376;53.356;-1.748;2023-03-21T07:11:24;98400.97;;;9.04;100.00
69257;BME280;56376;53.356;-1.748;2023-03-21T07:13:50;98393.94;;;9.06;100.00
69257;BME280;56376;53.356;-1.748;2023-03-21T07:16:17;98395.75;;;9.04;100.00
69257;BME280;56376;53.356;-1.748;2023-03-21T07:18:43;98399.16;;;9.06;100.00
69257;BME280;56376;53.356;-1.748;2023-03-21T07:21:09;98403.47;;;9.07;100.00
69257;BME280;56376;53.356;-1.748;2023-03-21T07:23:35;98396.69;;;9.03;100.00
69257;BME280;56376;53.356;-1.748;2023-03-21T07:26:02;98393.09;;;9.06;100.00
69257;BME280;56376;53.356;-1.748;2023-03-21T07:28:28;98389.56;;;9.07;100.00
69257;BME280;56376;53.356;-1.748;2023-03-21T07:31:00;98392.94;;;9.09;100.00
69257;BME280;56376;53.356;-1.748;2023-03-21T07:33:27;98386.91;;;9.08;100.00
69257;BME280;56376;53.356;-1.748;2023-03-21T07:35:53;98389.44;;;9.10;100.00
69257;BME280;56376;53.356;-1.748;2023-03-21T07:38:20;98391.13;;;9.11;100.00
69257;BME280;56376;53.356;-1.748;2023-03-21T07:40:47;98392.78;;;9.12;100.00
69257;BME280;56376;53.356;-1.748;2023-03-21T07:43:13;98395.41;;;9.12;100.00
69257;BME280;56376;53.356;-1.748;2023-03-21T07:45:39;98397.09;;;9.13;100.00
69257;BME280;56376;53.356;-1.748;2023-03-21T07:48:07;98396.25;;;9.13;100.00
69257;BME280;56376;53.356;-1.748;2023-03-21T07:50:33;98389.28;;;9.13;100.00
69257;BME280;56376;53.356;-1.748;2023-03-21T07:52:58;98384.06;;;9.13;100.00
69257;BME280;56376;53.356;-1.748;2023-03-21T07:55:25;98388.28;;;9.16;100.00
69257;BME280;56376;53.356;-1.748;2023-03-21T07:57:50;98393.44;;;9.17;100.00
69257;BME280;56376;53.356;-1.748;2023-03-21T08:00:19;98393.19;;;9.22;100.00
69257;BME280;56376;53.356;-1.748;2023-03-21T08:02:51;98389.59;;;9.24;100.00
69257;BME280;56376;53.356;-1.748;2023-03-21T08:05:21;98397.41;;;9.24;100.00
69257;BME280;56376;53.356;-1.748;2023-03-21T08:07:47;98393.91;;;9.25;100.00
69257;BME280;56376;53.356;-1.748;2023-03-21T08:10:12;98389.53;;;9.26;100.00
69257;BME280;56376;53.356;-1.748;2023-03-21T08:12:38;98400.78;;;9.26;100.00
69257;BME280;56376;53.356;-1.748;2023-03-21T08:15:04;98391.97;;;9.29;100.00
69257;BME280;56376;53.356;-1.748;2023-03-21T08:17:29;98392.97;;;9.26;100.00
69257;BME280;56376;53.356;-1.748;2023-03-21T08:19:55;98390.38;;;9.26;100.00
69257;BME280;56376;53.356;-1.748;2023-03-21T08:22:20;98380.78;;;9.27;100.00
69257;BME280;56376;53.356;-1.748;2023-03-21T08:24:46;98384.09;;;9.30;100.00
69257;BME280;56376;53.356;-1.748;2023-03-21T08:27:11;98378.06;;;9.30;100.00
69257;BME280;56376;53.356;-1.748;2023-03-21T08:29:37;98364.09;;;9.31;100.00
69257;BME280;56376;53.356;-1.748;2023-03-21T08:32:05;98365.69;;;9.34;100.00
69257;BME280;56376;53.356;-1.748;2023-03-21T08:34:30;98363.94;;;9.34;100.00
69257;BME280;56376;53.356;-1.748;2023-03-21T08:36:56;98358.66;;;9.36;100.00
69257;BME280;56376;53.356;-1.748;2023-03-21T08:39:21;98358.56;;;9.37;100.00
69257;BME280;56376;53.356;-1.748;2023-03-21T08:41:48;98358.44;;;9.40;100.00
69257;BME280;56376;53.356;-1.748;2023-03-21T08:44:14;98354.88;;;9.41;100.00
69257;BME280;56376;53.356;-1.748;2023-03-21T08:46:41;98359.03;;;9.45;100.00
69257;BME280;56376;53.356;-1.748;2023-03-21T08:49:06;98347.63;;;9.48;100.00
69257;BME280;56376;53.356;-1.748;2023-03-21T08:51:32;98350.13;;;9.49;100.00
69257;BME280;56376;53.356;-1.748;2023-03-21T08:53:58;98352.59;;;9.52;100.00
69257;BME280;56376;53.356;-1.748;2023-03-21T08:56:23;98354.09;;;9.57;100.00
69257;BME280;56376;53.356;-1.748;2023-03-21T08:58:49;98348.91;;;9.57;100.00
69257;BME280;56376;53.356;-1.748;2023-03-21T09:01:14;98347.00;;;9.60;100.00
69257;BME280;56376;53.356;-1.748;2023-03-21T09:03:40;98341.69;;;9.62;100.00
69257;BME280;56376;53.356;-1.748;2023-03-21T09:06:06;98340.91;;;9.60;100.00
69257;BME280;56376;53.356;-1.748;2023-03-21T09:08:36;98343.53;;;9.60;100.00
69257;BME280;56376;53.356;-1.748;2023-03-21T09:11:01;98343.53;;;9.60;100.00
69257;BME280;56376;53.356;-1.748;2023-03-21T09:13:26;98339.91;;;9.62;100.00
69257;BME280;56376;53.356;-1.748;2023-03-21T09:15:53;98345.91;;;9.64;100.00
69257;BME280;56376;53.356;-1.748;2023-03-21T09:18:19;98338.78;;;9.68;100.00
69257;BME280;56376;53.356;-1.748;2023-03-21T09:21:08;98343.81;;;9.71;100.00
69257;BME280;56376;53.356;-1.748;2023-03-21T09:23:37;98336.69;;;9.74;100.00
69257;BME280;56376;53.356;-1.748;2023-03-21T09:26:03;98329.47;;;9.80;100.00
69257;BME280;56376;53.356;-1.748;2023-03-21T09:28:29;98319.56;;;9.86;100.00
69257;BME280;56376;53.356;-1.748;2023-03-21T09:30:57;98322.75;;;9.91;100.00
69257;BME280;56376;53.356;-1.748;2023-03-21T09:33:22;98325.19;;;9.94;100.00
69257;BME280;56376;53.356;-1.748;2023-03-21T09:35:49;98326.91;;;9.95;100.00
69257;BME280;56376;53.356;-1.748;2023-03-21T09:38:15;98323.38;;;9.96;100.00
69257;BME280;56376;53.356;-1.748;2023-03-21T09:41:09;98318.22;;;9.95;100.00
69257;BME280;56376;53.356;-1.748;2023-03-21T09:46:49;98315.59;;;9.95;100.00
69257;BME280;56376;53.356;-1.748;2023-03-21T09:49:23;98309.31;;;9.99;100.00
69257;BME280;56376;53.356;-1.748;2023-03-21T09:51:57;98310.91;;;10.02;100.00
69257;BME280;56376;53.356;-1.748;2023-03-21T09:54:32;98311.50;;;10.07;100.00
69257;BME280;56376;53.356;-1.748;2023-03-21T09:57:34;98308.66;;;10.27;100.00
69257;BME280;56376;53.356;-1.748;2023-03-21T10:00:09;98287.22;;;10.54;100.00
69257;BME280;56376;53.356;-1.748;2023-03-21T10:02:46;98293.41;;;10.83;100.00
69257;BME280;56376;53.356;-1.748;2023-03-21T10:05:25;98299.41;;;11.15;100.00
69257;BME280;56376;53.356;-1.748;2023-03-21T10:08:00;98286.38;;;11.44;100.00
69257;BME280;56376;53.356;-1.748;2023-03-21T10:10:35;98292.75;;;11.68;100.00
69257;BME280;56376;53.356;-1.748;2023-03-21T10:13:02;98298.19;;;11.94;100.00
69257;BME280;56376;53.356;-1.748;2023-03-21T10:15:29;98308.03;;;12.05;100.00
69257;BME280;56376;53.356;-1.748;2023-03-21T10:18:00;98308.13;;;12.03;100.00
69257;BME280;56376;53.356;-1.748;2023-03-21T10:20:35;98305.22;;;12.08;100.00
69257;BME280;56376;53.356;-1.748;2023-03-21T10:23:02;98309.72;;;12.06;100.00
69257;BME280;56376;53.356;-1.748;2023-03-21T10:27:58;98317.00;;;11.86;100.00
69257;BME280;56376;53.356;-1.748;2023-03-21T10:30:28;98316.78;;;11.75;100.00
69257;BME280;56376;53.356;-1.748;2023-03-21T10:33:00;98303.22;;;11.68;100.00
69257;BME280;56376;53.356;-1.748;2023-03-21T10:35:29;98289.50;;;11.65;100.00
69257;BME280;56376;53.356;-1.748;2023-03-21T10:37:58;98286.50;;;11.71;100.00
69257;BME280;56376;53.356;-1.748;2023-03-21T10:40:24;98291.66;;;11.73;100.00
69257;BME280;56376;53.356;-1.748;2023-03-21T10:42:50;98273.81;;;11.79;100.00
69257;BME280;56376;53.356;-1.748;2023-03-21T10:45:18;98267.28;;;11.86;100.00
69257;BME280;56376;53.356;-1.748;2023-03-21T10:47:47;98270.84;;;12.00;100.00
69257;BME280;56376;53.356;-1.748;2023-03-21T10:50:16;98261.09;;;12.16;100.00
69257;BME280;56376;53.356;-1.748;2023-03-21T10:52:49;98273.31;;;12.30;100.00
69257;BME280;56376;53.356;-1.748;2023-03-21T10:57:46;98269.06;;;12.42;100.00
69257;BME280;56376;53.356;-1.748;2023-03-21T11:00:19;98270.09;;;12.39;100.00
69257;BME280;56376;53.356;-1.748;2023-03-21T11:02:50;98274.03;;;12.32;100.00
69257;BME280;56376;53.356;-1.748;2023-03-21T11:05:33;98262.63;;;12.33;100.00
69257;BME280;56376;53.356;-1.748;2023-03-21T11:08:05;98260.84;;;12.33;100.00
69257;BME280;56376;53.356;-1.748;2023-03-21T11:10:36;98279.94;;;12.36;100.00
69257;BME280;56376;53.356;-1.748;2023-03-21T11:13:18;98280.78;;;12.36;100.00
69257;BME280;56376;53.356;-1.748;2023-03-21T11:15:56;98269.53;;;12.34;100.00
69257;BME280;56376;53.356;-1.748;2023-03-21T11:18:29;98262.97;;;12.41;100.00
69257;BME280;56376;53.356;-1.748;2023-03-21T11:21:08;98278.50;;;12.44;100.00
69257;BME280;56376;53.356;-1.748;2023-03-21T11:23:37;98282.97;;;12.42;100.00
69257;BME280;56376;53.356;-1.748;2023-03-21T11:26:09;98279.66;;;12.40;100.00
69257;BME280;56376;53.356;-1.748;2023-03-21T11:28:37;98284.22;;;12.37;100.00
69257;BME280;56376;53.356;-1.748;2023-03-21T11:31:04;98292.19;;;12.35;100.00
69257;BME280;56376;53.356;-1.748;2023-03-21T11:33:36;98288.16;;;12.29;100.00
69257;BME280;56376;53.356;-1.748;2023-03-21T11:38:42;98288.34;;;12.26;100.00
69257;BME280;56376;53.356;-1.748;2023-03-21T11:41:07;98287.31;;;12.29;100.00
69257;BME280;56376;53.356;-1.748;2023-03-21T11:43:39;98288.81;;;12.33;100.00
69257;BME280;56376;53.356;-1.748;2023-03-21T11:46:07;98290.13;;;12.40;100.00
69257;BME280;56376;53.356;-1.748;2023-03-21T11:48:45;98284.69;;;12.43;97.99
69257;BME280;56376;53.356;-1.748;2023-03-21T11:54:18;98278.56;;;12.57;99.82
69257;BME280;56376;53.356;-1.748;2023-03-21T11:56:47;98277.63;;;12.58;98.10
69257;BME280;56376;53.356;-1.748;2023-03-21T12:04:52;98280.41;;;12.82;97.89
69257;BME280;56376;53.356;-1.748;2023-03-21T12:10:34;98258.44;;;12.97;96.42
69257;BME280;56376;53.356;-1.748;2023-03-21T12:20:49;98250.69;;;12.83;95.76
69257;BME280;56376;53.356;-1.748;2023-03-21T12:23:47;98259.88;;;12.76;94.43
69257;BME280;56376;53.356;-1.748;2023-03-21T12:26:22;98251.28;;;12.74;96.60
69257;BME280;56376;53.356;-1.748;2023-03-21T12:29:06;98257.34;;;12.74;97.13
69257;BME280;56376;53.356;-1.748;2023-03-21T12:34:26;98259.28;;;12.85;94.06
69257;BME280;56376;53.356;-1.748;2023-03-21T12:37:28;98246.22;;;12.98;93.76
69257;BME280;56376;53.356;-1.748;2023-03-21T12:40:08;98262.56;;;13.14;93.31
69257;BME280;56376;53.356;-1.748;2023-03-21T12:43:00;98251.22;;;13.28;93.87
69257;BME280;56376;53.356;-1.748;2023-03-21T12:45:35;98245.97;;;13.54;93.54
69257;BME280;56376;53.356;-1.748;2023-03-21T12:50:39;98257.69;;;13.87;91.92
69257;BME280;56376;53.356;-1.748;2023-03-21T12:53:26;98275.41;;;13.96;90.26
69257;BME280;56376;53.356;-1.748;2023-03-21T12:55:56;98261.84;;;14.02;89.88
69257;BME280;56376;53.356;-1.748;2023-03-21T12:58:24;98266.06;;;14.04;88.16
69257;BME280;56376;53.356;-1.748;2023-03-21T13:00:55;98251.59;;;13.99;87.45
69257;BME280;56376;53.356;-1.748;2023-03-21T13:03:40;98245.91;;;13.92;87.34
69257;BME280;56376;53.356;-1.748;2023-03-21T13:06:12;98246.34;;;13.99;87.33
69257;BME280;56376;53.356;-1.748;2023-03-21T13:11:04;98237.31;;;14.27;88.86
69257;BME280;56376;53.356;-1.748;2023-03-21T13:16:08;98248.63;;;14.40;88.37
69257;BME280;56376;53.356;-1.748;2023-03-21T13:19:02;98254.94;;;14.38;90.14
69257;BME280;56376;53.356;-1.748;2023-03-21T13:24:33;98243.09;;;14.32;91.14
69257;BME280;56376;53.356;-1.748;2023-03-21T13:27:14;98252.03;;;14.29;91.12
69257;BME280;56376;53.356;-1.748;2023-03-21T13:29:50;98250.56;;;14.25;91.52
69257;BME280;56376;53.356;-1.748;2023-03-21T13:32:40;98259.81;;;14.18;91.83
69257;BME280;56376;53.356;-1.748;2023-03-21T13:35:24;98254.91;;;14.14;91.44
69257;BME280;56376;53.356;-1.748;2023-03-21T13:38:10;98265.00;;;14.07;92.55
69257;BME280;56376;53.356;-1.748;2023-03-21T13:40:44;98269.00;;;14.00;93.22
69257;BME280;56376;53.356;-1.748;2023-03-21T13:43:41;98272.25;;;13.91;93.62
69257;BME280;56376;53.356;-1.748;2023-03-21T13:46:12;98270.28;;;13.81;93.94
69257;BME280;56376;53.356;-1.748;2023-03-21T13:48:54;98264.53;;;13.76;95.33
69257;BME280;56376;53.356;-1.748;2023-03-21T13:56:26;98262.97;;;13.61;95.97
69257;BME280;56376;53.356;-1.748;2023-03-21T13:58:58;98276.28;;;13.58;97.04
69257;BME280;56376;53.356;-1.748;2023-03-21T14:01:36;98266.81;;;13.55;99.02
69257;BME280;56376;53.356;-1.748;2023-03-21T14:04:17;98261.56;;;13.55;99.81
69257;BME280;56376;53.356;-1.748;2023-03-21T14:11:53;98251.28;;;13.65;100.00
69257;BME280;56376;53.356;-1.748;2023-03-21T14:14:21;98243.94;;;13.70;100.00
69257;BME280;56376;53.356;-1.748;2023-03-21T14:16:51;98232.91;;;13.78;100.00
69257;BME280;56376;53.356;-1.748;2023-03-21T14:19:17;98224.09;;;13.92;100.00
69257;BME280;56376;53.356;-1.748;2023-03-21T14:21:48;98220.38;;;14.07;99.42
69257;BME280;56376;53.356;-1.748;2023-03-21T14:24:16;98212.69;;;14.17;96.76
69257;BME280;56376;53.356;-1.748;2023-03-21T14:26:45;98216.41;;;14.25;96.66